KDTL

Detroit Lakes-Wething Field Airport

Detroit Lakes, Minnesota, USA
METAR KDTL 181615Z AUTO 20008KT 10SM CLR 12/03 A3015 RMK AO2
Observed Flight Rules
Oct-18 @ 16:15 UTC (6 minutes ago) Visual Flight Rules
Wind Visibility Clouds
200° at 8 knots 10 miles
  • Clear skies
Temperatures Readings
Current 12°C / 54°F
Dewpoint 3°C / 37°F
Humidity 54%
Altimeter 30.15" Hg
Pressure 1021 hPa
Elevation 426
METAR KDTL 181615Z AUTO 20008KT 10SM CLR 12/03 A3015 RMK AO2
Observed Flight Rules
Oct-18 @ 16:15 UTC
(6 minutes ago)
VFR
Wind Visibility
200° at 8 knots 10 miles
Clouds
  • Clear skies
Temperature Dewpoint
12°C / 54°F 3°C / 37°F
Humidity Altimeter Pressure
54% 30.15" Hg 1021 hPa